Ellen — SIDM — position and weather

sailwx.info

Track history (hours):
 
Tides and Currents Weather Stations Pressure Air Temp Water Temp Dewpoint Dewpoint Depression Visibility Wind Speed Wind Dir Waves Ship Positions

Ellen (Sweden)

Ship's website: http://www.syellen.org/Skolsegelfartyget_Ellen/Hem.html

Last reported at 2020-Aug-13 00:26 UTC. Time now 2020-Aug-13 11:26 UTC.
Position N 59°21' E 018°19'.

Length 22 m; draft 2.2 m.

Type: Sailing vessel. MMSI: 265508900.

Date/timePositionNaut miles runAvg speedWind from/ knotsBaromVisibWave heightAir tempDewpointWater temp
2020-Aug-13 00:26N 59°21' E 018°19'0 0.0
2020-Aug-12 16:43N 59°21' E 018°19'7 4.1
2020-Aug-12 15:00N 59°19' E 018°06'0 0.0
2020-Aug-12 14:00N 59°19' E 018°06'0 0.3
2020-Aug-12 12:30N 59°19' E 018°06'8 3.8
2020-Aug-12 10:30N 59°23' E 018°19'2 4.4
2020-Aug-12 09:58N 59°25' E 018°21'2 1.0
2020-Aug-12 07:33N 59°26' E 018°25'0 0.0
2020-Aug-12 06:27N 59°26' E 018°25'0 0.0
2020-Aug-12 02:51N 59°26' E 018°25'0 0.0
2020-Aug-12 02:09N 59°26' E 018°25'0 0.0
2020-Aug-11 23:09N 59°26' E 018°25'0 0.0
2020-Aug-11 22:51N 59°26' E 018°25'0 0.0
2020-Aug-11 21:30N 59°26' E 018°25'0 0.0
2020-Aug-11 21:00N 59°26' E 018°25'0 0.0
2020-Aug-11 17:24N 59°26' E 018°25'4 0.9
2020-Aug-11 12:57N 59°25' E 018°32'4 2.2
2020-Aug-11 11:11N 59°26' E 018°39'4 3.3
2020-Aug-11 10:00N 59°27' E 018°47'6 0.3
2020-Aug-10 12:29N 59°21' E 018°46'6 0.3
2020-Aug-09 14:59N 59°15' E 018°41'4 1.6
2020-Aug-09 12:19N 59°18' E 018°47'2 0.1
2020-Aug-08 17:30N 59°17' E 018°51'0 0.0
2020-Aug-08 14:05N 59°17' E 018°51'2 1.3
2020-Aug-08 12:47N 59°18' E 018°48'3 2.2
2020-Aug-08 11:24N 59°16' E 018°43'0 0.3
2020-Aug-08 11:00N 59°16' E 018°43'0 0.2
2020-Aug-08 09:24N 59°16' E 018°42'3 6.6
2020-Aug-08 08:59N 59°15' E 018°38'0 0.3
2020-Aug-08 07:40N 59°15' E 018°38'0 0.0
2020-Aug-08 04:31N 59°15' E 018°38'0 0.0
2020-Aug-08 03:58N 59°15' E 018°38'0 0.0
2020-Aug-08 03:16N 59°15' E 018°38'0 0.0
2020-Aug-08 02:55N 59°15' E 018°38'0 0.0
2020-Aug-08 00:58N 59°15' E 018°38'0 0.0
2020-Aug-07 23:58N 59°15' E 018°38'0 0.0
2020-Aug-07 21:52N 59°15' E 018°38'0 0.0
2020-Aug-07 19:28N 59°15' E 018°38'0 0.0
2020-Aug-07 17:22N 59°15' E 018°38'0 0.0
2020-Aug-07 16:22N 59°15' E 018°38'0 0.1
2020-Aug-07 13:56N 59°15' E 018°38'1 1.4
2020-Aug-07 12:59N 59°14' E 018°39'2 3.6
2020-Aug-07 12:29N 59°12' E 018°37'5 2.5
2020-Aug-07 10:25N 59°07' E 018°36'2 2.5
2020-Aug-07 09:45N 59°06' E 018°35'1 0.4
2020-Aug-07 06:29N 59°05' E 018°32'0 0.0
2020-Aug-07 04:59N 59°05' E 018°32'0 0.0
2020-Aug-07 04:29N 59°05' E 018°32'0 0.0
2020-Aug-06 15:52N 59°05' E 018°32'6 2.5
2020-Aug-06 13:30N 59°10' E 018°26'14 1.8
2020-Aug-06 06:00N 59°19' E 018°06'0 0.0
2020-Aug-06 05:30N 59°19' E 018°06'0 0.0
2020-Aug-06 04:30N 59°19' E 018°06'0 0.0
2020-Aug-06 04:00N 59°19' E 018°06'0 0.0
2020-Aug-06 02:00N 59°19' E 018°06'0 0.0
2020-Aug-06 01:30N 59°19' E 018°06'0 0.0
2020-Aug-05 22:30N 59°19' E 018°06'0 0.0
2020-Aug-05 20:00N 59°19' E 018°06'0 0.0
2020-Aug-05 19:30N 59°19' E 018°06'0 0.0
2020-Aug-05 17:30N 59°19' E 018°06'0 0.0
2020-Aug-05 14:00N 59°19' E 018°06'0 0.0
2020-Aug-05 13:00N 59°19' E 018°06'0 0.0
2020-Aug-05 12:30N 59°19' E 018°06'0 0.0
2020-Aug-05 09:30N 59°19' E 018°06'0 0.0
2020-Aug-05 06:30N 59°19' E 018°06'0 0.0
2020-Aug-05 04:30N 59°19' E 018°06'0 0.0
2020-Aug-05 00:30N 59°19' E 018°06'0 0.0
2020-Aug-04 22:30N 59°19' E 018°06'0 0.0
2020-Aug-04 21:00N 59°19' E 018°06'0 0.0
2020-Aug-04 20:00N 59°19' E 018°06'0 0.0
2020-Aug-04 17:00N 59°19' E 018°06'10 1.7
2020-Aug-04 11:00N 59°14' E 018°24'0 0.0
2020-Aug-04 09:30N 59°14' E 018°24'0 0.0
2020-Aug-04 09:00N 59°14' E 018°24'0 0.0
2020-Aug-04 08:30N 59°14' E 018°24'0 0.0
2020-Aug-04 04:57N 59°14' E 018°24'0 0.0
2020-Aug-04 04:00N 59°14' E 018°24'0 0.0
2020-Aug-04 03:00N 59°14' E 018°24'0 0.0
2020-Aug-03 22:30N 59°14' E 018°24'0 0.0
2020-Aug-03 17:24N 59°14' E 018°24'0 0.0
2020-Aug-03 16:30N 59°14' E 018°24'0 0.0
2020-Aug-03 15:24N 59°14' E 018°24'1 0.5
2020-Aug-03 13:00N 59°14' E 018°26'4 1.9
2020-Aug-03 11:00N 59°12' E 018°32'1 1.1
2020-Aug-03 10:00N 59°12' E 018°34'2 3.8
2020-Aug-03 09:30N 59°14' E 018°37'2 3.5
2020-Aug-03 08:49N 59°16' E 018°39'0 0.0
2020-Aug-03 06:57N 59°16' E 018°39'0 0.0
2020-Aug-03 05:03N 59°16' E 018°39'0 0.0
2020-Aug-03 04:27N 59°16' E 018°39'  
Track history (hours):
 
Tides and Currents Weather Stations Pressure Air Temp Water Temp Dewpoint Dewpoint Depression Visibility Wind Speed Wind Dir Waves Ship Positions

Ellen (Sweden)

Ship's website: http://www.syellen.org/Skolsegelfartyget_Ellen/Hem.html

Last reported at 2020-Aug-13 00:26 UTC. Time now 2020-Aug-13 11:26 UTC.
Position N 59°21' E 018°19'.

Length 22 m; draft 2.2 m.

Type: Sailing vessel. MMSI: 265508900.

Date/timePositionNaut miles runAvg speedWind from/ knotsBaromVisibWave heightAir tempDewpointWater temp
2020-Aug-13 00:26N 59°21' E 018°19'0 0.0
2020-Aug-12 16:43N 59°21' E 018°19'7 4.1
2020-Aug-12 15:00N 59°19' E 018°06'0 0.0
2020-Aug-12 14:00N 59°19' E 018°06'0 0.3
2020-Aug-12 12:30N 59°19' E 018°06'8 3.8
2020-Aug-12 10:30N 59°23' E 018°19'2 4.4
2020-Aug-12 09:58N 59°25' E 018°21'2 1.0
2020-Aug-12 07:33N 59°26' E 018°25'0 0.0
2020-Aug-12 06:27N 59°26' E 018°25'0 0.0
2020-Aug-12 02:51N 59°26' E 018°25'0 0.0
2020-Aug-12 02:09N 59°26' E 018°25'0 0.0
2020-Aug-11 23:09N 59°26' E 018°25'0 0.0
2020-Aug-11 22:51N 59°26' E 018°25'0 0.0
2020-Aug-11 21:30N 59°26' E 018°25'0 0.0
2020-Aug-11 21:00N 59°26' E 018°25'0 0.0
2020-Aug-11 17:24N 59°26' E 018°25'4 0.9
2020-Aug-11 12:57N 59°25' E 018°32'4 2.2
2020-Aug-11 11:11N 59°26' E 018°39'4 3.3
2020-Aug-11 10:00N 59°27' E 018°47'6 0.3
2020-Aug-10 12:29N 59°21' E 018°46'6 0.3
2020-Aug-09 14:59N 59°15' E 018°41'4 1.6
2020-Aug-09 12:19N 59°18' E 018°47'2 0.1
2020-Aug-08 17:30N 59°17' E 018°51'0 0.0
2020-Aug-08 14:05N 59°17' E 018°51'2 1.3
2020-Aug-08 12:47N 59°18' E 018°48'3 2.2
2020-Aug-08 11:24N 59°16' E 018°43'0 0.3
2020-Aug-08 11:00N 59°16' E 018°43'0 0.2
2020-Aug-08 09:24N 59°16' E 018°42'3 6.6
2020-Aug-08 08:59N 59°15' E 018°38'0 0.3
2020-Aug-08 07:40N 59°15' E 018°38'0 0.0
2020-Aug-08 04:31N 59°15' E 018°38'0 0.0
2020-Aug-08 03:58N 59°15' E 018°38'0 0.0
2020-Aug-08 03:16N 59°15' E 018°38'0 0.0
2020-Aug-08 02:55N 59°15' E 018°38'0 0.0
2020-Aug-08 00:58N 59°15' E 018°38'0 0.0
2020-Aug-07 23:58N 59°15' E 018°38'0 0.0
2020-Aug-07 21:52N 59°15' E 018°38'0 0.0
2020-Aug-07 19:28N 59°15' E 018°38'0 0.0
2020-Aug-07 17:22N 59°15' E 018°38'0 0.0
2020-Aug-07 16:22N 59°15' E 018°38'0 0.1
2020-Aug-07 13:56N 59°15' E 018°38'1 1.4
2020-Aug-07 12:59N 59°14' E 018°39'2 3.6
2020-Aug-07 12:29N 59°12' E 018°37'5 2.5
2020-Aug-07 10:25N 59°07' E 018°36'2 2.5
2020-Aug-07 09:45N 59°06' E 018°35'1 0.4
2020-Aug-07 06:29N 59°05' E 018°32'0 0.0
2020-Aug-07 04:59N 59°05' E 018°32'0 0.0
2020-Aug-07 04:29N 59°05' E 018°32'0 0.0
2020-Aug-06 15:52N 59°05' E 018°32'6 2.5
2020-Aug-06 13:30N 59°10' E 018°26'14 1.8
2020-Aug-06 06:00N 59°19' E 018°06'0 0.0
2020-Aug-06 05:30N 59°19' E 018°06'0 0.0
2020-Aug-06 04:30N 59°19' E 018°06'0 0.0
2020-Aug-06 04:00N 59°19' E 018°06'0 0.0
2020-Aug-06 02:00N 59°19' E 018°06'0 0.0
2020-Aug-06 01:30N 59°19' E 018°06'0 0.0
2020-Aug-05 22:30N 59°19' E 018°06'0 0.0
2020-Aug-05 20:00N 59°19' E 018°06'0 0.0
2020-Aug-05 19:30N 59°19' E 018°06'0 0.0
2020-Aug-05 17:30N 59°19' E 018°06'0 0.0
2020-Aug-05 14:00N 59°19' E 018°06'0 0.0
2020-Aug-05 13:00N 59°19' E 018°06'0 0.0
2020-Aug-05 12:30N 59°19' E 018°06'0 0.0
2020-Aug-05 09:30N 59°19' E 018°06'0 0.0
2020-Aug-05 06:30N 59°19' E 018°06'0 0.0
2020-Aug-05 04:30N 59°19' E 018°06'0 0.0
2020-Aug-05 00:30N 59°19' E 018°06'0 0.0
2020-Aug-04 22:30N 59°19' E 018°06'0 0.0
2020-Aug-04 21:00N 59°19' E 018°06'0 0.0
2020-Aug-04 20:00N 59°19' E 018°06'0 0.0
2020-Aug-04 17:00N 59°19' E 018°06'10 1.7
2020-Aug-04 11:00N 59°14' E 018°24'0 0.0
2020-Aug-04 09:30N 59°14' E 018°24'0 0.0
2020-Aug-04 09:00N 59°14' E 018°24'0 0.0
2020-Aug-04 08:30N 59°14' E 018°24'0 0.0
2020-Aug-04 04:57N 59°14' E 018°24'0 0.0
2020-Aug-04 04:00N 59°14' E 018°24'0 0.0
2020-Aug-04 03:00N 59°14' E 018°24'0 0.0
2020-Aug-03 22:30N 59°14' E 018°24'0 0.0
2020-Aug-03 17:24N 59°14' E 018°24'0 0.0
2020-Aug-03 16:30N 59°14' E 018°24'0 0.0
2020-Aug-03 15:24N 59°14' E 018°24'1 0.5
2020-Aug-03 13:00N 59°14' E 018°26'4 1.9
2020-Aug-03 11:00N 59°12' E 018°32'1 1.1
2020-Aug-03 10:00N 59°12' E 018°34'2 3.8
2020-Aug-03 09:30N 59°14' E 018°37'2 3.5
2020-Aug-03 08:49N 59°16' E 018°39'0 0.0
2020-Aug-03 06:57N 59°16' E 018°39'0 0.0
2020-Aug-03 05:03N 59°16' E 018°39'0 0.0
2020-Aug-03 04:27N 59°16' E 018°39'  

Dump ship's entire track history